sensor_id;sensor_type;location;lat;lon;timestamp;temperature;humidity
65036;DHT22;51603;49.300;8.880;2023-06-24T00:01:34;16.50;99.90
65036;DHT22;51603;49.300;8.880;2023-06-24T00:04:00;16.60;99.90
65036;DHT22;51603;49.300;8.880;2023-06-24T00:06:25;16.60;99.90
65036;DHT22;51603;49.300;8.880;2023-06-24T00:08:52;16.60;99.90
65036;DHT22;51603;49.300;8.880;2023-06-24T00:11:18;16.50;99.90
65036;DHT22;51603;49.300;8.880;2023-06-24T00:13:44;16.50;99.90
65036;DHT22;51603;49.300;8.880;2023-06-24T00:16:10;16.50;99.90
65036;DHT22;51603;49.300;8.880;2023-06-24T00:18:37;16.50;99.90
65036;DHT22;51603;49.300;8.880;2023-06-24T00:21:03;16.50;99.90
65036;DHT22;51603;49.300;8.880;2023-06-24T00:23:29;16.50;99.90
65036;DHT22;51603;49.300;8.880;2023-06-24T00:26:00;16.50;99.90
65036;DHT22;51603;49.300;8.880;2023-06-24T00:28:26;16.50;99.90
65036;DHT22;51603;49.300;8.880;2023-06-24T00:30:52;16.40;99.90
65036;DHT22;51603;49.300;8.880;2023-06-24T00:33:18;16.30;99.90
65036;DHT22;51603;49.300;8.880;2023-06-24T00:35:45;16.30;99.90
65036;DHT22;51603;49.300;8.880;2023-06-24T00:38:10;16.30;99.90
65036;DHT22;51603;49.300;8.880;2023-06-24T00:40:37;16.20;99.90
65036;DHT22;51603;49.300;8.880;2023-06-24T00:43:03;16.10;99.90
65036;DHT22;51603;49.300;8.880;2023-06-24T00:45:30;16.00;99.90
65036;DHT22;51603;49.300;8.880;2023-06-24T00:47:55;16.00;99.90
65036;DHT22;51603;49.300;8.880;2023-06-24T00:50:22;16.10;99.90
65036;DHT22;51603;49.300;8.880;2023-06-24T00:52:47;16.10;99.90
65036;DHT22;51603;49.300;8.880;2023-06-24T00:55:16;16.20;99.90
65036;DHT22;51603;49.300;8.880;2023-06-24T00:57:43;16.10;99.90
65036;DHT22;51603;49.300;8.880;2023-06-24T01:00:10;16.10;99.90
65036;DHT22;51603;49.300;8.880;2023-06-24T01:02:41;16.10;99.90
65036;DHT22;51603;49.300;8.880;2023-06-24T01:05:11;16.10;99.90
65036;DHT22;51603;49.300;8.880;2023-06-24T01:07:38;16.10;99.90
65036;DHT22;51603;49.300;8.880;2023-06-24T01:10:05;16.10;99.90
65036;DHT22;51603;49.300;8.880;2023-06-24T01:12:35;16.10;99.90
65036;DHT22;51603;49.300;8.880;2023-06-24T01:15:02;16.10;99.90
65036;DHT22;51603;49.300;8.880;2023-06-24T01:17:37;15.90;99.90
65036;DHT22;51603;49.300;8.880;2023-06-24T01:20:10;15.90;99.90
65036;DHT22;51603;49.300;8.880;2023-06-24T01:26:24;15.90;99.90
65036;DHT22;51603;49.300;8.880;2023-06-24T01:31:45;15.80;99.90
65036;DHT22;51603;49.300;8.880;2023-06-24T01:36:38;15.80;99.90
65036;DHT22;51603;49.300;8.880;2023-06-24T01:39:08;15.80;99.90
65036;DHT22;51603;49.300;8.880;2023-06-24T01:41:42;15.80;99.90
65036;DHT22;51603;49.300;8.880;2023-06-24T01:44:10;15.80;99.90
65036;DHT22;51603;49.300;8.880;2023-06-24T01:46:40;15.80;99.90
65036;DHT22;51603;49.300;8.880;2023-06-24T01:49:07;15.70;99.90
65036;DHT22;51603;49.300;8.880;2023-06-24T01:51:38;15.70;99.90
65036;DHT22;51603;49.300;8.880;2023-06-24T01:54:08;15.60;99.90
65036;DHT22;51603;49.300;8.880;2023-06-24T01:56:37;15.60;99.90
65036;DHT22;51603;49.300;8.880;2023-06-24T01:59:05;15.60;99.90
65036;DHT22;51603;49.300;8.880;2023-06-24T02:01:35;15.60;99.90
65036;DHT22;51603;49.300;8.880;2023-06-24T02:04:03;15.50;99.90
65036;DHT22;51603;49.300;8.880;2023-06-24T02:06:31;15.50;99.90
65036;DHT22;51603;49.300;8.880;2023-06-24T02:08:58;15.50;99.90
65036;DHT22;51603;49.300;8.880;2023-06-24T02:11:26;15.50;99.90
65036;DHT22;51603;49.300;8.880;2023-06-24T02:13:54;15.50;99.90
65036;DHT22;51603;49.300;8.880;2023-06-24T02:16:21;15.40;99.90
65036;DHT22;51603;49.300;8.880;2023-06-24T02:18:47;15.40;99.90
65036;DHT22;51603;49.300;8.880;2023-06-24T02:21:16;15.30;99.90
65036;DHT22;51603;49.300;8.880;2023-06-24T02:23:43;15.30;99.90
65036;DHT22;51603;49.300;8.880;2023-06-24T02:26:10;15.30;99.90
65036;DHT22;51603;49.300;8.880;2023-06-24T02:28:37;15.30;99.90
65036;DHT22;51603;49.300;8.880;2023-06-24T02:31:04;15.30;99.90
65036;DHT22;51603;49.300;8.880;2023-06-24T02:33:31;15.20;99.90
65036;DHT22;51603;49.300;8.880;2023-06-24T02:35:57;15.20;99.90
65036;DHT22;51603;49.300;8.880;2023-06-24T02:38:23;15.20;99.90
65036;DHT22;51603;49.300;8.880;2023-06-24T02:40:49;15.20;99.90
65036;DHT22;51603;49.300;8.880;2023-06-24T02:43:17;15.10;99.90
65036;DHT22;51603;49.300;8.880;2023-06-24T02:45:44;15.10;99.90
65036;DHT22;51603;49.300;8.880;2023-06-24T02:48:10;15.10;99.90
65036;DHT22;51603;49.300;8.880;2023-06-24T02:50:37;15.10;99.90
65036;DHT22;51603;49.300;8.880;2023-06-24T02:53:04;15.00;99.90
65036;DHT22;51603;49.300;8.880;2023-06-24T02:55:30;15.00;99.90
65036;DHT22;51603;49.300;8.880;2023-06-24T02:57:57;14.70;99.90
65036;DHT22;51603;49.300;8.880;2023-06-24T03:00:23;14.80;99.90
65036;DHT22;51603;49.300;8.880;2023-06-24T03:02:50;14.80;99.90
65036;DHT22;51603;49.300;8.880;2023-06-24T03:05:16;14.90;99.90
65036;DHT22;51603;49.300;8.880;2023-06-24T03:07:42;14.90;99.90
65036;DHT22;51603;49.300;8.880;2023-06-24T03:10:08;14.90;99.90
65036;DHT22;51603;49.300;8.880;2023-06-24T03:12:36;14.90;99.90
65036;DHT22;51603;49.300;8.880;2023-06-24T03:15:01;14.90;99.90
65036;DHT22;51603;49.300;8.880;2023-06-24T03:17:27;14.90;99.90
65036;DHT22;51603;49.300;8.880;2023-06-24T03:19:53;14.90;99.90
65036;DHT22;51603;49.300;8.880;2023-06-24T03:22:18;14.90;99.90
65036;DHT22;51603;49.300;8.880;2023-06-24T03:24:45;14.70;99.90
65036;DHT22;51603;49.300;8.880;2023-06-24T03:27:10;14.70;99.90
65036;DHT22;51603;49.300;8.880;2023-06-24T03:29:36;14.80;99.90
65036;DHT22;51603;49.300;8.880;2023-06-24T03:32:01;14.80;99.90
65036;DHT22;51603;49.300;8.880;2023-06-24T03:34:27;14.80;99.90
65036;DHT22;51603;49.300;8.880;2023-06-24T03:36:53;14.60;99.90
65036;DHT22;51603;49.300;8.880;2023-06-24T03:39:22;14.50;99.90
65036;DHT22;51603;49.300;8.880;2023-06-24T03:41:48;14.50;99.90
65036;DHT22;51603;49.300;8.880;2023-06-24T03:44:13;14.50;99.90
65036;DHT22;51603;49.300;8.880;2023-06-24T03:46:39;14.50;99.90
65036;DHT22;51603;49.300;8.880;2023-06-24T03:49:04;14.60;99.90
65036;DHT22;51603;49.300;8.880;2023-06-24T03:51:30;14.60;99.90
65036;DHT22;51603;49.300;8.880;2023-06-24T03:53:56;14.70;99.90
65036;DHT22;51603;49.300;8.880;2023-06-24T03:56:22;14.70;99.90
65036;DHT22;51603;49.300;8.880;2023-06-24T03:58:47;14.80;99.90
65036;DHT22;51603;49.300;8.880;2023-06-24T04:01:13;14.80;99.90
65036;DHT22;51603;49.300;8.880;2023-06-24T04:03:39;14.80;99.90
65036;DHT22;51603;49.300;8.880;2023-06-24T04:06:04;14.80;99.90
65036;DHT22;51603;49.300;8.880;2023-06-24T04:08:30;14.80;99.90
65036;DHT22;51603;49.300;8.880;2023-06-24T04:10:58;14.80;99.90
65036;DHT22;51603;49.300;8.880;2023-06-24T04:13:29;14.80;99.90
65036;DHT22;51603;49.300;8.880;2023-06-24T04:15:54;14.90;99.90
65036;DHT22;51603;49.300;8.880;2023-06-24T04:18:20;14.90;99.90
65036;DHT22;51603;49.300;8.880;2023-06-24T04:20:46;14.90;99.90
65036;DHT22;51603;49.300;8.880;2023-06-24T04:23:12;14.90;99.90
65036;DHT22;51603;49.300;8.880;2023-06-24T04:25:40;15.00;99.90
65036;DHT22;51603;49.300;8.880;2023-06-24T04:28:05;14.90;99.90
65036;DHT22;51603;49.300;8.880;2023-06-24T04:30:32;14.90;99.90
65036;DHT22;51603;49.300;8.880;2023-06-24T04:32:57;15.00;99.90
65036;DHT22;51603;49.300;8.880;2023-06-24T04:35:24;15.00;99.90
65036;DHT22;51603;49.300;8.880;2023-06-24T04:37:50;15.00;99.90
65036;DHT22;51603;49.300;8.880;2023-06-24T04:40:18;15.00;99.90
65036;DHT22;51603;49.300;8.880;2023-06-24T04:42:45;15.00;99.90
65036;DHT22;51603;49.300;8.880;2023-06-24T04:45:11;15.00;99.90
65036;DHT22;51603;49.300;8.880;2023-06-24T04:47:37;15.00;99.90
65036;DHT22;51603;49.300;8.880;2023-06-24T04:50:03;15.00;99.90
65036;DHT22;51603;49.300;8.880;2023-06-24T04:52:29;15.00;99.90
65036;DHT22;51603;49.300;8.880;2023-06-24T04:54:54;15.00;99.90
65036;DHT22;51603;49.300;8.880;2023-06-24T04:57:38;15.00;99.90
65036;DHT22;51603;49.300;8.880;2023-06-24T05:00:03;15.00;99.90
65036;DHT22;51603;49.300;8.880;2023-06-24T05:02:30;14.90;99.90
65036;DHT22;51603;49.300;8.880;2023-06-24T05:04:55;14.90;99.90
65036;DHT22;51603;49.300;8.880;2023-06-24T05:07:21;14.90;99.90
65036;DHT22;51603;49.300;8.880;2023-06-24T05:09:47;14.90;99.90
65036;DHT22;51603;49.300;8.880;2023-06-24T05:12:13;14.80;99.90
65036;DHT22;51603;49.300;8.880;2023-06-24T05:14:38;14.80;99.90
65036;DHT22;51603;49.300;8.880;2023-06-24T05:17:04;14.80;99.90
65036;DHT22;51603;49.300;8.880;2023-06-24T05:19:30;14.90;99.90
65036;DHT22;51603;49.300;8.880;2023-06-24T05:21:55;14.90;99.90
65036;DHT22;51603;49.300;8.880;2023-06-24T05:24:21;14.90;99.90
65036;DHT22;51603;49.300;8.880;2023-06-24T05:26:49;15.00;99.90
65036;DHT22;51603;49.300;8.880;2023-06-24T05:29:16;15.10;99.90
65036;DHT22;51603;49.300;8.880;2023-06-24T05:31:42;15.20;99.90
65036;DHT22;51603;49.300;8.880;2023-06-24T05:34:07;15.30;99.90
65036;DHT22;51603;49.300;8.880;2023-06-24T05:36:33;15.40;99.90
65036;DHT22;51603;49.300;8.880;2023-06-24T05:38:59;15.40;99.90
65036;DHT22;51603;49.300;8.880;2023-06-24T05:41:24;15.50;99.90
65036;DHT22;51603;49.300;8.880;2023-06-24T05:44:02;15.60;99.90
65036;DHT22;51603;49.300;8.880;2023-06-24T05:46:28;15.70;99.90
65036;DHT22;51603;49.300;8.880;2023-06-24T05:48:53;15.70;99.90
65036;DHT22;51603;49.300;8.880;2023-06-24T05:51:19;15.80;99.90
65036;DHT22;51603;49.300;8.880;2023-06-24T05:53:44;15.90;99.90
65036;DHT22;51603;49.300;8.880;2023-06-24T05:56:10;16.00;99.90
65036;DHT22;51603;49.300;8.880;2023-06-24T05:58:35;16.10;99.90
65036;DHT22;51603;49.300;8.880;2023-06-24T06:01:01;16.20;99.90
65036;DHT22;51603;49.300;8.880;2023-06-24T06:03:26;16.30;99.90
65036;DHT22;51603;49.300;8.880;2023-06-24T06:05:52;16.40;99.90
65036;DHT22;51603;49.300;8.880;2023-06-24T06:08:18;16.50;99.90
65036;DHT22;51603;49.300;8.880;2023-06-24T06:10:43;16.60;99.90
65036;DHT22;51603;49.300;8.880;2023-06-24T06:13:09;16.70;99.90
65036;DHT22;51603;49.300;8.880;2023-06-24T06:15:34;16.80;99.90
65036;DHT22;51603;49.300;8.880;2023-06-24T06:18:00;16.90;99.90
65036;DHT22;51603;49.300;8.880;2023-06-24T06:20:25;17.00;99.90
65036;DHT22;51603;49.300;8.880;2023-06-24T06:22:51;17.10;99.90
65036;DHT22;51603;49.300;8.880;2023-06-24T06:25:16;17.20;99.90
65036;DHT22;51603;49.300;8.880;2023-06-24T06:27:42;17.30;99.90
65036;DHT22;51603;49.300;8.880;2023-06-24T06:30:08;17.40;99.90
65036;DHT22;51603;49.300;8.880;2023-06-24T06:32:34;17.50;99.90
65036;DHT22;51603;49.300;8.880;2023-06-24T06:34:59;17.60;99.90
65036;DHT22;51603;49.300;8.880;2023-06-24T06:37:25;17.70;99.90
65036;DHT22;51603;49.300;8.880;2023-06-24T06:39:50;17.80;99.90
65036;DHT22;51603;49.300;8.880;2023-06-24T06:42:16;17.90;99.90
65036;DHT22;51603;49.300;8.880;2023-06-24T06:44:41;18.00;99.90
65036;DHT22;51603;49.300;8.880;2023-06-24T06:47:07;18.20;99.90
65036;DHT22;51603;49.300;8.880;2023-06-24T06:49:33;18.20;99.90
65036;DHT22;51603;49.300;8.880;2023-06-24T06:51:58;18.30;99.90
65036;DHT22;51603;49.300;8.880;2023-06-24T06:54:24;18.50;99.90
65036;DHT22;51603;49.300;8.880;2023-06-24T06:56:49;18.50;99.90
65036;DHT22;51603;49.300;8.880;2023-06-24T06:59:15;18.60;99.90
65036;DHT22;51603;49.300;8.880;2023-06-24T07:01:40;18.80;99.90
65036;DHT22;51603;49.300;8.880;2023-06-24T07:04:06;18.90;99.90
65036;DHT22;51603;49.300;8.880;2023-06-24T07:06:31;19.00;99.90
65036;DHT22;51603;49.300;8.880;2023-06-24T07:08:58;19.10;99.90
65036;DHT22;51603;49.300;8.880;2023-06-24T07:11:23;19.20;99.90
65036;DHT22;51603;49.300;8.880;2023-06-24T07:13:49;19.20;99.90
65036;DHT22;51603;49.300;8.880;2023-06-24T07:16:17;19.30;99.90
65036;DHT22;51603;49.300;8.880;2023-06-24T07:18:42;19.40;99.90
65036;DHT22;51603;49.300;8.880;2023-06-24T07:21:08;19.50;99.90
65036;DHT22;51603;49.300;8.880;2023-06-24T07:23:33;19.50;99.90
65036;DHT22;51603;49.300;8.880;2023-06-24T07:25:59;19.60;99.90
65036;DHT22;51603;49.300;8.880;2023-06-24T07:28:24;19.80;99.90
65036;DHT22;51603;49.300;8.880;2023-06-24T07:30:50;19.90;99.90
65036;DHT22;51603;49.300;8.880;2023-06-24T07:33:16;20.00;99.90
65036;DHT22;51603;49.300;8.880;2023-06-24T07:35:41;20.10;99.90
65036;DHT22;51603;49.300;8.880;2023-06-24T07:38:07;20.20;99.90
65036;DHT22;51603;49.300;8.880;2023-06-24T07:40:32;20.30;99.90
65036;DHT22;51603;49.300;8.880;2023-06-24T07:42:58;20.40;99.90
65036;DHT22;51603;49.300;8.880;2023-06-24T07:45:23;20.60;99.90
65036;DHT22;51603;49.300;8.880;2023-06-24T07:47:50;20.70;99.90
65036;DHT22;51603;49.300;8.880;2023-06-24T07:50:16;20.80;99.90
65036;DHT22;51603;49.300;8.880;2023-06-24T07:52:42;21.00;99.90
65036;DHT22;51603;49.300;8.880;2023-06-24T07:55:07;21.20;99.90
65036;DHT22;51603;49.300;8.880;2023-06-24T07:57:33;21.30;99.90
65036;DHT22;51603;49.300;8.880;2023-06-24T07:59:59;21.40;99.90
65036;DHT22;51603;49.300;8.880;2023-06-24T08:02:24;21.60;99.90
65036;DHT22;51603;49.300;8.880;2023-06-24T08:04:50;21.70;99.90
65036;DHT22;51603;49.300;8.880;2023-06-24T08:07:16;21.90;99.90
65036;DHT22;51603;49.300;8.880;2023-06-24T08:09:42;21.90;99.90
65036;DHT22;51603;49.300;8.880;2023-06-24T08:12:07;22.00;99.90
65036;DHT22;51603;49.300;8.880;2023-06-24T08:14:33;22.20;99.90
65036;DHT22;51603;49.300;8.880;2023-06-24T08:16:59;22.50;99.90
65036;DHT22;51603;49.300;8.880;2023-06-24T08:19:24;22.70;99.90
65036;DHT22;51603;49.300;8.880;2023-06-24T08:21:50;22.80;99.90
65036;DHT22;51603;49.300;8.880;2023-06-24T08:24:15;22.80;99.90
65036;DHT22;51603;49.300;8.880;2023-06-24T08:26:41;23.00;99.90
65036;DHT22;51603;49.300;8.880;2023-06-24T08:29:06;23.20;99.90
65036;DHT22;51603;49.300;8.880;2023-06-24T08:31:32;23.40;99.90
65036;DHT22;51603;49.300;8.880;2023-06-24T08:34:01;23.60;99.90
65036;DHT22;51603;49.300;8.880;2023-06-24T08:36:32;23.60;99.90
65036;DHT22;51603;49.300;8.880;2023-06-24T08:38:58;23.70;99.90
65036;DHT22;51603;49.300;8.880;2023-06-24T08:41:24;23.70;99.90
65036;DHT22;51603;49.300;8.880;2023-06-24T08:43:53;23.60;99.90
65036;DHT22;51603;49.300;8.880;2023-06-24T08:46:20;23.80;99.90
65036;DHT22;51603;49.300;8.880;2023-06-24T08:48:48;23.90;99.90
65036;DHT22;51603;49.300;8.880;2023-06-24T08:51:17;23.90;99.90
65036;DHT22;51603;49.300;8.880;2023-06-24T08:53:43;24.30;99.90
65036;DHT22;51603;49.300;8.880;2023-06-24T08:56:09;24.50;99.90
65036;DHT22;51603;49.300;8.880;2023-06-24T08:58:36;24.60;99.00
65036;DHT22;51603;49.300;8.880;2023-06-24T09:01:02;24.90;99.80
65036;DHT22;51603;49.300;8.880;2023-06-24T09:03:28;25.20;95.90
65036;DHT22;51603;49.300;8.880;2023-06-24T09:05:54;25.00;91.20
65036;DHT22;51603;49.300;8.880;2023-06-24T09:08:21;24.90;92.10
65036;DHT22;51603;49.300;8.880;2023-06-24T09:10:53;25.10;92.70
65036;DHT22;51603;49.300;8.880;2023-06-24T09:13:19;25.20;87.80
65036;DHT22;51603;49.300;8.880;2023-06-24T09:15:45;25.40;90.30
65036;DHT22;51603;49.300;8.880;2023-06-24T09:18:11;25.50;91.50
65036;DHT22;51603;49.300;8.880;2023-06-24T09:20:41;25.70;89.10
65036;DHT22;51603;49.300;8.880;2023-06-24T09:23:10;25.60;86.00
65036;DHT22;51603;49.300;8.880;2023-06-24T09:25:36;25.90;87.70
65036;DHT22;51603;49.300;8.880;2023-06-24T09:28:02;26.10;86.10
65036;DHT22;51603;49.300;8.880;2023-06-24T09:30:28;25.70;80.80
65036;DHT22;51603;49.300;8.880;2023-06-24T09:32:55;25.60;81.50
65036;DHT22;51603;49.300;8.880;2023-06-24T09:35:22;25.60;80.20
65036;DHT22;51603;49.300;8.880;2023-06-24T09:37:58;25.70;85.10
65036;DHT22;51603;49.300;8.880;2023-06-24T09:40:26;25.80;83.00
65036;DHT22;51603;49.300;8.880;2023-06-24T09:42:55;26.20;80.00
65036;DHT22;51603;49.300;8.880;2023-06-24T09:45:26;26.20;74.40
65036;DHT22;51603;49.300;8.880;2023-06-24T09:47:53;26.40;79.40
65036;DHT22;51603;49.300;8.880;2023-06-24T09:50:19;26.70;77.30
65036;DHT22;51603;49.300;8.880;2023-06-24T09:52:45;27.10;77.20
65036;DHT22;51603;49.300;8.880;2023-06-24T09:55:15;27.20;70.50
65036;DHT22;51603;49.300;8.880;2023-06-24T09:57:44;27.20;71.40
65036;DHT22;51603;49.300;8.880;2023-06-24T10:00:11;27.30;67.30
65036;DHT22;51603;49.300;8.880;2023-06-24T10:02:40;26.70;65.10
65036;DHT22;51603;49.300;8.880;2023-06-24T10:05:06;26.40;65.80
65036;DHT22;51603;49.300;8.880;2023-06-24T10:07:33;26.30;66.80
65036;DHT22;51603;49.300;8.880;2023-06-24T10:10:01;26.40;69.60
65036;DHT22;51603;49.300;8.880;2023-06-24T10:12:27;26.30;66.30
65036;DHT22;51603;49.300;8.880;2023-06-24T10:14:54;26.30;73.10
65036;DHT22;51603;49.300;8.880;2023-06-24T10:17:19;26.80;68.70
65036;DHT22;51603;49.300;8.880;2023-06-24T10:19:45;27.30;67.90
65036;DHT22;51603;49.300;8.880;2023-06-24T10:22:11;27.80;68.90
65036;DHT22;51603;49.300;8.880;2023-06-24T10:24:41;28.10;63.60
65036;DHT22;51603;49.300;8.880;2023-06-24T10:27:21;28.40;61.20
65036;DHT22;51603;49.300;8.880;2023-06-24T10:29:52;28.60;62.20
65036;DHT22;51603;49.300;8.880;2023-06-24T10:32:18;28.40;54.10
65036;DHT22;51603;49.300;8.880;2023-06-24T10:34:45;28.10;55.70
65036;DHT22;51603;49.300;8.880;2023-06-24T10:39:59;27.60;58.10
65036;DHT22;51603;49.300;8.880;2023-06-24T10:47:38;28.10;60.00
65036;DHT22;51603;49.300;8.880;2023-06-24T10:50:05;28.50;61.00
65036;DHT22;51603;49.300;8.880;2023-06-24T10:52:35;29.00;59.20
65036;DHT22;51603;49.300;8.880;2023-06-24T10:55:02;29.20;57.00
65036;DHT22;51603;49.300;8.880;2023-06-24T10:57:29;29.00;50.70
65036;DHT22;51603;49.300;8.880;2023-06-24T10:59:56;28.70;52.60
65036;DHT22;51603;49.300;8.880;2023-06-24T11:02:24;28.30;52.40
65036;DHT22;51603;49.300;8.880;2023-06-24T11:04:54;27.90;55.10
65036;DHT22;51603;49.300;8.880;2023-06-24T11:07:27;28.50;58.10
65036;DHT22;51603;49.300;8.880;2023-06-24T11:10:15;28.80;55.20
65036;DHT22;51603;49.300;8.880;2023-06-24T11:12:42;28.80;53.80
65036;DHT22;51603;49.300;8.880;2023-06-24T11:15:09;28.90;50.30
65036;DHT22;51603;49.300;8.880;2023-06-24T11:17:36;28.90;50.50
65036;DHT22;51603;49.300;8.880;2023-06-24T11:20:10;28.60;50.30
65036;DHT22;51603;49.300;8.880;2023-06-24T11:22:35;29.00;51.80
65036;DHT22;51603;49.300;8.880;2023-06-24T11:25:01;29.40;50.30
65036;DHT22;51603;49.300;8.880;2023-06-24T11:27:28;29.60;51.50
65036;DHT22;51603;49.300;8.880;2023-06-24T11:29:55;29.80;50.50
65036;DHT22;51603;49.300;8.880;2023-06-24T11:32:23;30.30;50.70
65036;DHT22;51603;49.300;8.880;2023-06-24T11:34:49;29.90;44.20
65036;DHT22;51603;49.300;8.880;2023-06-24T11:37:17;29.50;45.70
65036;DHT22;51603;49.300;8.880;2023-06-24T11:39:44;29.20;45.00
65036;DHT22;51603;49.300;8.880;2023-06-24T11:42:10;29.20;47.80
65036;DHT22;51603;49.300;8.880;2023-06-24T11:44:41;29.30;44.90
65036;DHT22;51603;49.300;8.880;2023-06-24T11:47:09;28.80;43.70
65036;DHT22;51603;49.300;8.880;2023-06-24T11:49:52;28.90;42.60
65036;DHT22;51603;49.300;8.880;2023-06-24T11:52:18;28.80;42.50
65036;DHT22;51603;49.300;8.880;2023-06-24T11:54:44;29.10;44.90
65036;DHT22;51603;49.300;8.880;2023-06-24T11:57:11;29.10;44.70
65036;DHT22;51603;49.300;8.880;2023-06-24T11:59:38;29.40;45.30
65036;DHT22;51603;49.300;8.880;2023-06-24T12:02:03;29.90;43.90
65036;DHT22;51603;49.300;8.880;2023-06-24T12:04:33;30.20;46.50
65036;DHT22;51603;49.300;8.880;2023-06-24T12:06:59;30.30;43.30
65036;DHT22;51603;49.300;8.880;2023-06-24T12:09:25;30.20;43.30
65036;DHT22;51603;49.300;8.880;2023-06-24T12:11:52;29.40;44.30
65036;DHT22;51603;49.300;8.880;2023-06-24T12:14:18;29.70;45.20
65036;DHT22;51603;49.300;8.880;2023-06-24T12:16:43;29.90;45.00
65036;DHT22;51603;49.300;8.880;2023-06-24T12:19:09;30.10;44.60
65036;DHT22;51603;49.300;8.880;2023-06-24T12:21:35;30.10;46.10
65036;DHT22;51603;49.300;8.880;2023-06-24T12:24:04;30.10;46.00
65036;DHT22;51603;49.300;8.880;2023-06-24T12:26:31;30.60;47.80
65036;DHT22;51603;49.300;8.880;2023-06-24T12:28:57;31.00;46.00
65036;DHT22;51603;49.300;8.880;2023-06-24T12:31:23;31.40;47.10
65036;DHT22;51603;49.300;8.880;2023-06-24T12:33:50;31.30;41.80
65036;DHT22;51603;49.300;8.880;2023-06-24T12:36:16;30.70;44.60
65036;DHT22;51603;49.300;8.880;2023-06-24T12:38:42;30.70;42.10
65036;DHT22;51603;49.300;8.880;2023-06-24T12:41:07;30.20;43.70
65036;DHT22;51603;49.300;8.880;2023-06-24T12:43:33;29.90;43.30
65036;DHT22;51603;49.300;8.880;2023-06-24T12:45:58;29.70;44.00
65036;DHT22;51603;49.300;8.880;2023-06-24T12:48:24;29.40;43.00
65036;DHT22;51603;49.300;8.880;2023-06-24T12:50:50;29.40;42.80
65036;DHT22;51603;49.300;8.880;2023-06-24T12:53:19;29.40;45.10
65036;DHT22;51603;49.300;8.880;2023-06-24T12:55:44;29.70;45.00
65036;DHT22;51603;49.300;8.880;2023-06-24T12:58:10;30.30;45.60
65036;DHT22;51603;49.300;8.880;2023-06-24T13:00:35;30.50;43.90
65036;DHT22;51603;49.300;8.880;2023-06-24T13:03:01;31.10;47.40
65036;DHT22;51603;49.300;8.880;2023-06-24T13:05:26;30.80;42.10
65036;DHT22;51603;49.300;8.880;2023-06-24T13:07:52;30.60;41.70
65036;DHT22;51603;49.300;8.880;2023-06-24T13:10:18;30.20;43.90
65036;DHT22;51603;49.300;8.880;2023-06-24T13:12:43;30.50;43.20
65036;DHT22;51603;49.300;8.880;2023-06-24T13:15:09;30.70;45.00
65036;DHT22;51603;49.300;8.880;2023-06-24T13:17:36;31.20;47.60
65036;DHT22;51603;49.300;8.880;2023-06-24T13:20:02;31.50;43.90
65036;DHT22;51603;49.300;8.880;2023-06-24T13:22:30;31.80;44.50
65036;DHT22;51603;49.300;8.880;2023-06-24T13:24:56;31.80;43.60
65036;DHT22;51603;49.300;8.880;2023-06-24T13:27:21;31.90;43.50
65036;DHT22;51603;49.300;8.880;2023-06-24T13:29:47;32.00;44.00
65036;DHT22;51603;49.300;8.880;2023-06-24T13:32:13;32.20;43.10
65036;DHT22;51603;49.300;8.880;2023-06-24T13:34:38;31.90;40.30
65036;DHT22;51603;49.300;8.880;2023-06-24T13:37:04;30.80;40.70
65036;DHT22;51603;49.300;8.880;2023-06-24T13:39:30;30.00;41.30
65036;DHT22;51603;49.300;8.880;2023-06-24T13:41:56;30.10;42.80
65036;DHT22;51603;49.300;8.880;2023-06-24T13:44:22;30.20;42.90
65036;DHT22;51603;49.300;8.880;2023-06-24T13:46:49;30.70;43.70
65036;DHT22;51603;49.300;8.880;2023-06-24T13:49:15;31.00;42.90
65036;DHT22;51603;49.300;8.880;2023-06-24T13:51:41;31.20;42.10
65036;DHT22;51603;49.300;8.880;2023-06-24T13:54:07;31.70;43.60
65036;DHT22;51603;49.300;8.880;2023-06-24T13:56:33;31.90;41.30
65036;DHT22;51603;49.300;8.880;2023-06-24T13:58:58;31.70;40.80
65036;DHT22;51603;49.300;8.880;2023-06-24T14:01:24;31.60;40.70
65036;DHT22;51603;49.300;8.880;2023-06-24T14:03:50;31.90;40.50
65036;DHT22;51603;49.300;8.880;2023-06-24T14:06:18;31.70;40.50
65036;DHT22;51603;49.300;8.880;2023-06-24T14:08:44;31.50;40.50
65036;DHT22;51603;49.300;8.880;2023-06-24T14:11:10;31.50;40.60
65036;DHT22;51603;49.300;8.880;2023-06-24T14:13:35;31.50;41.40
65036;DHT22;51603;49.300;8.880;2023-06-24T14:16:02;31.40;39.60
65036;DHT22;51603;49.300;8.880;2023-06-24T14:18:27;30.20;40.50
65036;DHT22;51603;49.300;8.880;2023-06-24T14:20:53;30.40;42.50
65036;DHT22;51603;49.300;8.880;2023-06-24T14:23:19;31.00;43.00
65036;DHT22;51603;49.300;8.880;2023-06-24T14:25:44;31.60;44.80
65036;DHT22;51603;49.300;8.880;2023-06-24T14:28:10;32.10;46.10
65036;DHT22;51603;49.300;8.880;2023-06-24T14:30:35;32.30;44.10
65036;DHT22;51603;49.300;8.880;2023-06-24T14:33:01;32.60;41.50
65036;DHT22;51603;49.300;8.880;2023-06-24T14:35:27;32.30;42.40
65036;DHT22;51603;49.300;8.880;2023-06-24T14:37:52;32.50;40.90
65036;DHT22;51603;49.300;8.880;2023-06-24T14:40:18;32.70;41.70
65036;DHT22;51603;49.300;8.880;2023-06-24T14:42:44;32.50;40.30
65036;DHT22;51603;49.300;8.880;2023-06-24T14:45:09;32.70;41.50
65036;DHT22;51603;49.300;8.880;2023-06-24T14:47:35;32.50;39.40
65036;DHT22;51603;49.300;8.880;2023-06-24T14:50:02;32.30;41.30
65036;DHT22;51603;49.300;8.880;2023-06-24T14:52:27;32.10;41.80
65036;DHT22;51603;49.300;8.880;2023-06-24T14:54:53;31.70;39.80
65036;DHT22;51603;49.300;8.880;2023-06-24T14:57:18;31.90;42.90
65036;DHT22;51603;49.300;8.880;2023-06-24T14:59:44;32.00;43.30
65036;DHT22;51603;49.300;8.880;2023-06-24T15:02:10;31.80;43.50
65036;DHT22;51603;49.300;8.880;2023-06-24T15:04:36;31.80;44.70
65036;DHT22;51603;49.300;8.880;2023-06-24T15:07:02;31.60;43.60
65036;DHT22;51603;49.300;8.880;2023-06-24T15:09:27;31.20;42.50
65036;DHT22;51603;49.300;8.880;2023-06-24T15:11:53;31.40;43.20
65036;DHT22;51603;49.300;8.880;2023-06-24T15:14:18;31.70;43.10
65036;DHT22;51603;49.300;8.880;2023-06-24T15:16:44;31.70;43.30
65036;DHT22;51603;49.300;8.880;2023-06-24T15:19:09;31.80;41.30
65036;DHT22;51603;49.300;8.880;2023-06-24T15:21:35;32.10;42.30
65036;DHT22;51603;49.300;8.880;2023-06-24T15:24:01;32.30;42.00
65036;DHT22;51603;49.300;8.880;2023-06-24T15:26:26;32.40;42.60
65036;DHT22;51603;49.300;8.880;2023-06-24T15:28:52;31.70;39.50
65036;DHT22;51603;49.300;8.880;2023-06-24T15:31:19;31.30;41.20
65036;DHT22;51603;49.300;8.880;2023-06-24T15:33:44;31.00;41.20
65036;DHT22;51603;49.300;8.880;2023-06-24T15:36:10;31.10;42.30
65036;DHT22;51603;49.300;8.880;2023-06-24T15:38:35;31.50;44.10
65036;DHT22;51603;49.300;8.880;2023-06-24T15:41:01;31.60;40.60
65036;DHT22;51603;49.300;8.880;2023-06-24T15:43:26;31.50;39.50